createdAt,value
2023-04-24T00:02:21.014Z,6.72
2023-04-24T00:05:23.897Z,7.45
2023-04-24T00:08:26.318Z,7.22
2023-04-24T00:11:29.044Z,7.95
2023-04-24T00:14:31.673Z,8.13
2023-04-24T00:17:34.102Z,8.70
2023-04-24T00:20:39.477Z,8.70
2023-04-24T00:23:42.096Z,8.70
2023-04-24T00:26:44.537Z,7.65
2023-04-24T00:29:46.910Z,8.23
2023-04-24T00:32:49.301Z,7.93
2023-04-24T00:35:51.670Z,8.07
2023-04-24T00:38:54.848Z,8.82
2023-04-24T00:41:57.944Z,7.93
2023-04-24T00:45:00.632Z,8.70
2023-04-24T00:48:03.590Z,7.90
2023-04-24T00:51:06.208Z,8.65
2023-04-24T00:54:08.697Z,9.23
2023-04-24T00:57:11.471Z,10.80
2023-04-24T01:00:14.476Z,10.90
2023-04-24T01:03:19.070Z,10.00
2023-04-24T01:06:22.230Z,9.50
2023-04-24T01:09:25.427Z,9.20
2023-04-24T01:12:27.884Z,10.25
2023-04-24T01:15:30.176Z,9.80
2023-04-24T01:18:33.418Z,12.32
2023-04-24T01:21:38.341Z,12.57
2023-04-24T01:24:40.902Z,11.95
2023-04-24T01:27:43.269Z,10.45
2023-04-24T01:30:47.604Z,10.57
2023-04-24T01:33:51.077Z,10.05
2023-04-24T01:36:53.431Z,10.33
2023-04-24T01:39:55.791Z,10.60
2023-04-24T01:42:59.473Z,10.63
2023-04-24T01:46:01.860Z,10.77
2023-04-24T01:49:04.323Z,10.60
2023-04-24T01:52:06.763Z,11.25
2023-04-24T01:55:09.576Z,10.65
2023-04-24T01:58:12.015Z,11.57
2023-04-24T02:01:26.126Z,11.00
2023-04-24T02:04:28.678Z,12.93
2023-04-24T02:07:31.176Z,11.82
2023-04-24T02:10:33.788Z,14.48
2023-04-24T02:13:36.058Z,15.65
2023-04-24T02:16:38.357Z,17.23
2023-04-24T02:19:40.998Z,13.05
2023-04-24T02:22:43.451Z,16.52
2023-04-24T02:25:46.755Z,23.08
2023-04-24T02:28:49.044Z,23.90
2023-04-24T02:31:51.510Z,14.70
2023-04-24T02:34:53.879Z,21.45
2023-04-24T02:37:56.367Z,20.58
2023-04-24T02:40:58.802Z,13.65
2023-04-24T02:44:02.388Z,13.25
2023-04-24T02:47:05.465Z,18.88
2023-04-24T02:50:08.753Z,12.90
2023-04-24T02:53:11.161Z,15.85
2023-04-24T02:56:14.144Z,15.15
2023-04-24T02:59:16.610Z,14.68
2023-04-24T03:02:19.051Z,12.68
2023-04-24T03:05:21.555Z,12.05
2023-04-24T03:08:25.036Z,12.55
2023-04-24T03:11:27.379Z,12.15
2023-04-24T03:14:32.350Z,11.85
2023-04-24T03:17:34.663Z,13.65
2023-04-24T03:20:38.662Z,14.50
2023-04-24T03:23:41.263Z,14.55
2023-04-24T03:26:44.888Z,14.82
2023-04-24T03:29:59.402Z,14.07
2023-04-24T03:33:09.605Z,12.75
2023-04-24T03:36:16.529Z,11.75
2023-04-24T03:39:19.823Z,9.07
2023-04-24T03:42:28.172Z,10.20
2023-04-24T03:45:32.072Z,8.57
2023-04-24T03:48:34.499Z,12.07
2023-04-24T03:51:37.930Z,10.32
2023-04-24T03:54:53.406Z,14.38
2023-04-24T03:57:55.820Z,12.10
2023-04-24T04:00:59.468Z,13.55
2023-04-24T04:04:23.560Z,12.95
2023-04-24T04:07:26.887Z,11.65
2023-04-24T04:10:29.574Z,10.30
2023-04-24T04:13:32.531Z,10.52
2023-04-24T04:16:37.524Z,11.35
2023-04-24T04:19:42.411Z,12.18
2023-04-24T04:22:45.184Z,14.98
2023-04-24T04:25:53.116Z,12.82
2023-04-24T04:29:01.696Z,10.45
2023-04-24T04:32:05.292Z,10.60
2023-04-24T04:35:08.205Z,9.70
2023-04-24T04:38:12.052Z,7.63
2023-04-24T04:41:32.594Z,9.52
2023-04-24T04:44:36.942Z,10.00
2023-04-24T04:47:41.248Z,14.00
2023-04-24T04:50:44.724Z,10.43
2023-04-24T04:53:47.013Z,12.40
2023-04-24T04:56:51.937Z,15.30
2023-04-24T04:59:54.697Z,11.93
2023-04-24T05:03:20.596Z,11.05
2023-04-24T05:06:27.261Z,13.95
2023-04-24T05:09:30.672Z,12.85
2023-04-24T05:12:38.384Z,9.77
2023-04-24T05:15:41.009Z,9.75
2023-04-24T05:18:43.507Z,9.98
2023-04-24T05:21:49.841Z,10.25
2023-04-24T05:24:52.161Z,10.38
2023-04-24T05:28:14.365Z,11.73
2023-04-24T05:31:18.906Z,10.65
2023-04-24T05:34:21.646Z,11.55
2023-04-24T05:37:28.757Z,11.75
2023-04-24T05:40:31.699Z,11.52
2023-04-24T05:43:34.233Z,12.10
2023-04-24T05:46:36.694Z,12.88
2023-04-24T05:49:39.012Z,11.38
2023-04-24T05:52:41.934Z,11.48
2023-04-24T05:55:57.756Z,11.88
2023-04-24T05:59:00.832Z,11.50
2023-04-24T06:02:03.217Z,12.50
2023-04-24T06:05:08.583Z,13.32
2023-04-24T06:08:12.075Z,12.63
2023-04-24T06:11:16.011Z,12.15
2023-04-24T06:14:19.191Z,15.02
2023-04-24T06:17:47.996Z,11.23
2023-04-24T06:23:57.111Z,18.20
2023-04-24T06:27:01.011Z,13.23
2023-04-24T06:30:03.948Z,13.43
2023-04-24T06:33:19.575Z,10.95
2023-04-24T06:36:23.559Z,11.00
2023-04-24T06:39:25.979Z,8.40
2023-04-24T06:42:28.391Z,7.88
2023-04-24T06:45:32.032Z,8.63
2023-04-24T06:48:34.808Z,8.48
2023-04-24T06:51:37.486Z,8.93
2023-04-24T06:54:39.811Z,8.52
2023-04-24T06:57:42.355Z,7.57
2023-04-24T07:00:44.766Z,7.55
2023-04-24T07:03:47.273Z,7.50
2023-04-24T07:06:55.591Z,7.38
2023-04-24T07:09:58.774Z,7.65
2023-04-24T07:13:01.146Z,6.75
2023-04-24T07:16:03.550Z,7.00
2023-04-24T07:19:05.975Z,8.38
2023-04-24T07:22:08.357Z,10.05
2023-04-24T07:25:10.940Z,7.57
2023-04-24T07:28:13.259Z,6.97
2023-04-24T07:31:15.786Z,7.03
2023-04-24T07:34:18.177Z,8.98
2023-04-24T07:37:21.273Z,19.00
2023-04-24T07:40:24.470Z,7.20
2023-04-24T07:43:26.932Z,11.43
2023-04-24T07:46:31.198Z,13.63
2023-04-24T07:52:37.819Z,7.68
2023-04-24T07:55:40.269Z,7.70
2023-04-24T07:58:42.513Z,5.70
2023-04-24T08:01:44.860Z,7.28
2023-04-24T08:04:47.392Z,6.40
2023-04-24T08:07:51.439Z,8.80
2023-04-24T08:10:53.789Z,7.30
2023-04-24T08:13:56.303Z,6.18
2023-04-24T08:17:00.615Z,6.03
2023-04-24T08:20:06.244Z,5.43
2023-04-24T08:23:08.688Z,5.57
2023-04-24T08:26:12.269Z,6.40
2023-04-24T08:29:14.597Z,5.67
2023-04-24T08:32:17.160Z,6.05
2023-04-24T08:35:19.802Z,5.60
2023-04-24T08:38:22.223Z,5.65
2023-04-24T08:41:27.245Z,5.25
2023-04-24T08:44:29.593Z,4.80
2023-04-24T08:47:32.158Z,6.05
2023-04-24T08:50:34.860Z,5.18
2023-04-24T08:53:37.830Z,5.35
2023-04-24T08:56:40.558Z,7.13
2023-04-24T08:59:43.935Z,6.05
2023-04-24T09:02:47.471Z,5.30
2023-04-24T09:05:51.570Z,8.10
2023-04-24T09:08:57.592Z,5.30
2023-04-24T09:12:00.328Z,4.55
2023-04-24T09:15:04.982Z,3.70
2023-04-24T09:18:07.609Z,4.28
2023-04-24T09:21:10.898Z,4.47
2023-04-24T09:24:23.684Z,3.95
2023-04-24T09:27:26.119Z,3.88
2023-04-24T09:30:28.435Z,3.95
2023-04-24T09:33:30.959Z,4.72
2023-04-24T09:36:42.083Z,4.60
2023-04-24T09:39:44.688Z,4.35
2023-04-24T09:42:57.890Z,3.88
2023-04-24T09:46:02.160Z,4.00
2023-04-24T09:52:33.487Z,4.47
2023-04-24T09:55:42.138Z,3.70
2023-04-24T09:58:44.403Z,3.28
2023-04-24T10:01:47.422Z,3.78
2023-04-24T10:05:01.361Z,3.60
2023-04-24T10:08:07.810Z,3.33
2023-04-24T10:11:12.016Z,2.65
2023-04-24T10:17:17.546Z,3.58
2023-04-24T10:20:25.188Z,3.10
2023-04-24T10:23:27.580Z,3.80
2023-04-24T10:26:30.080Z,3.38
2023-04-24T10:29:33.087Z,3.33
2023-04-24T10:32:35.702Z,4.00
2023-04-24T10:35:42.484Z,3.17
2023-04-24T10:38:45.340Z,3.63
2023-04-24T10:41:48.131Z,3.35
2023-04-24T10:44:50.942Z,3.08
2023-04-24T10:48:05.058Z,3.63
2023-04-24T10:51:13.409Z,3.40
2023-04-24T10:54:25.591Z,3.60
2023-04-24T10:57:31.735Z,3.70
2023-04-24T11:00:34.304Z,3.60
2023-04-24T11:03:37.845Z,4.18
2023-04-24T11:06:44.468Z,3.60
2023-04-24T11:09:46.872Z,4.07
2023-04-24T11:12:49.543Z,4.00
2023-04-24T11:16:15.046Z,4.00
2023-04-24T11:19:20.550Z,3.95
2023-04-24T11:22:25.090Z,3.80
2023-04-24T11:25:33.940Z,7.65
2023-04-24T11:28:36.966Z,12.60
2023-04-24T11:31:40.950Z,5.78
2023-04-24T11:34:43.499Z,3.63
2023-04-24T11:38:02.772Z,5.47
2023-04-24T11:41:10.164Z,10.82
2023-04-24T11:44:13.227Z,7.40
2023-04-24T11:47:16.389Z,3.92
2023-04-24T11:50:20.385Z,5.35
2023-04-24T11:53:23.027Z,4.20
2023-04-24T11:56:25.941Z,4.80
2023-04-24T11:59:28.633Z,5.35
2023-04-24T12:02:31.152Z,6.30
2023-04-24T12:05:34.050Z,7.60
2023-04-24T12:08:38.304Z,5.60
2023-04-24T12:11:54.987Z,4.70
2023-04-24T12:14:59.547Z,4.40
2023-04-24T12:18:02.244Z,3.70
2023-04-24T12:21:36.683Z,4.80
2023-04-24T12:25:07.020Z,3.37
2023-04-24T12:28:13.744Z,11.25
2023-04-24T12:31:16.757Z,7.35
2023-04-24T12:34:22.906Z,4.57
2023-04-24T12:37:33.731Z,4.43
2023-04-24T12:40:36.234Z,4.85
2023-04-24T12:43:39.135Z,5.90
2023-04-24T12:46:41.632Z,9.98
2023-04-24T12:49:45.211Z,6.05
2023-04-24T12:52:47.536Z,5.90
2023-04-24T12:55:54.009Z,5.70
2023-04-24T12:58:56.403Z,5.72
2023-04-24T13:01:58.812Z,4.10
2023-04-24T13:05:01.537Z,3.90
2023-04-24T13:08:04.047Z,5.63
2023-04-24T13:11:06.630Z,4.93
2023-04-24T13:14:08.992Z,4.00
2023-04-24T13:17:12.971Z,4.10
2023-04-24T13:20:15.529Z,4.25
2023-04-24T13:23:18.280Z,4.60
2023-04-24T13:26:21.003Z,3.95
2023-04-24T13:29:23.684Z,5.60
2023-04-24T13:32:26.884Z,4.38
2023-04-24T13:35:29.287Z,5.25
2023-04-24T13:38:31.729Z,4.78
2023-04-24T13:41:35.210Z,4.28
2023-04-24T13:44:37.552Z,4.50
2023-04-24T13:47:41.916Z,5.43
2023-04-24T13:50:44.611Z,5.68
2023-04-24T13:53:46.948Z,5.18
2023-04-24T13:56:49.311Z,5.63
2023-04-24T13:59:51.847Z,5.15
2023-04-24T14:02:54.294Z,7.47
2023-04-24T14:05:56.842Z,7.13
2023-04-24T14:08:59.181Z,5.45
2023-04-24T14:12:03.058Z,5.65
2023-04-24T14:15:06.189Z,4.65
2023-04-24T14:18:08.690Z,5.18
2023-04-24T14:21:11.101Z,5.72
2023-04-24T14:24:13.520Z,5.32
2023-04-24T14:27:16.060Z,5.32
2023-04-24T14:30:19.009Z,5.97
2023-04-24T14:33:21.619Z,5.60
2023-04-24T14:36:24.117Z,5.20
2023-04-24T14:39:26.555Z,5.40
2023-04-24T14:42:29.894Z,5.30
2023-04-24T14:45:32.299Z,6.40
2023-04-24T14:48:34.795Z,7.28
2023-04-24T14:51:40.148Z,5.40
2023-04-24T14:54:42.468Z,5.22
2023-04-24T14:57:45.053Z,5.32
2023-04-24T15:00:47.439Z,5.57
2023-04-24T15:03:50.324Z,5.45
2023-04-24T15:06:54.984Z,7.05
2023-04-24T15:09:58.185Z,7.32
2023-04-24T15:13:00.517Z,6.97
2023-04-24T15:16:03.430Z,7.63
2023-04-24T15:19:05.985Z,8.05
2023-04-24T15:22:08.499Z,7.53
2023-04-24T15:25:11.699Z,9.25
2023-04-24T15:28:14.756Z,8.68
2023-04-24T15:31:17.760Z,16.63
2023-04-24T15:34:20.190Z,12.18
2023-04-24T15:37:22.496Z,9.77
2023-04-24T15:40:24.996Z,9.77
2023-04-24T15:43:27.382Z,9.88
2023-04-24T15:46:29.819Z,9.82
2023-04-24T15:49:33.649Z,10.93
2023-04-24T15:52:36.306Z,8.52
2023-04-24T15:55:38.778Z,10.25
2023-04-24T15:58:41.413Z,9.35
2023-04-24T16:01:43.791Z,9.27
2023-04-24T16:04:47.304Z,8.18
2023-04-24T16:07:49.715Z,9.13
2023-04-24T16:10:52.849Z,10.40
2023-04-24T16:13:55.580Z,10.57
2023-04-24T16:16:58.017Z,11.88
2023-04-24T16:20:00.403Z,9.45
2023-04-24T16:23:03.070Z,9.18
2023-04-24T16:26:05.776Z,9.93
2023-04-24T16:29:08.205Z,10.63
2023-04-24T16:32:11.287Z,9.85
2023-04-24T16:35:13.742Z,11.20
2023-04-24T16:38:16.478Z,10.25
2023-04-24T16:41:18.935Z,11.90
2023-04-24T16:44:21.585Z,10.85
2023-04-24T16:47:23.919Z,10.75
2023-04-24T16:50:26.334Z,14.07
2023-04-24T16:53:28.642Z,14.77
2023-04-24T16:56:31.355Z,14.80
2023-04-24T16:59:35.022Z,13.32
2023-04-24T17:02:37.598Z,8.73
2023-04-24T17:05:40.038Z,11.52
2023-04-24T17:08:42.558Z,10.73
2023-04-24T17:11:45.117Z,10.27
2023-04-24T17:14:47.529Z,10.40
2023-04-24T17:17:50.673Z,9.82
2023-04-24T17:20:53.096Z,9.90
2023-04-24T17:23:55.624Z,9.45
2023-04-24T17:27:04.800Z,10.57
2023-04-24T17:30:15.057Z,10.27
2023-04-24T17:33:17.639Z,18.25
2023-04-24T17:36:20.239Z,17.75
2023-04-24T17:39:22.633Z,17.27
2023-04-24T17:42:24.969Z,14.05
2023-04-24T17:45:27.296Z,10.73
2023-04-24T17:48:29.812Z,11.90
2023-04-24T17:51:32.906Z,24.70
2023-04-24T17:54:35.794Z,8.90
2023-04-24T17:57:38.224Z,8.15
2023-04-24T18:00:41.989Z,9.15
2023-04-24T18:03:44.705Z,11.23
2023-04-24T18:06:47.153Z,9.90
2023-04-24T18:09:52.336Z,9.30
2023-04-24T18:12:56.485Z,8.00
2023-04-24T18:15:59.111Z,10.48
2023-04-24T18:19:01.748Z,9.90
2023-04-24T18:22:05.135Z,13.93
2023-04-24T18:29:25.390Z,13.80
2023-04-24T18:32:27.942Z,13.50
2023-04-24T18:35:30.302Z,12.68
2023-04-24T18:38:32.684Z,11.32
2023-04-24T18:41:35.449Z,11.05
2023-04-24T18:44:42.853Z,11.93
2023-04-24T18:47:45.587Z,11.48
2023-04-24T18:50:47.974Z,16.85
2023-04-24T18:53:50.387Z,12.70
2023-04-24T18:56:53.008Z,12.52
2023-04-24T18:59:55.542Z,13.13
2023-04-24T19:02:57.968Z,8.95
2023-04-24T19:06:00.406Z,10.25
2023-04-24T19:09:03.018Z,13.63
2023-04-24T19:12:06.685Z,18.65
2023-04-24T19:15:12.975Z,14.70
2023-04-24T19:18:17.181Z,13.43
2023-04-24T19:21:19.485Z,12.43
2023-04-24T19:24:21.944Z,13.60
2023-04-24T19:27:24.731Z,16.27
2023-04-24T19:30:27.041Z,19.13
2023-04-24T19:33:29.589Z,22.42
2023-04-24T19:36:32.511Z,15.45
2023-04-24T19:39:34.914Z,13.07
2023-04-24T19:45:45.199Z,15.63
2023-04-24T19:48:47.835Z,15.80
2023-04-24T19:51:50.424Z,16.75
2023-04-24T19:54:53.196Z,13.98
2023-04-24T19:57:55.752Z,17.48
2023-04-24T20:00:58.501Z,14.27
2023-04-24T20:04:02.235Z,15.63
2023-04-24T20:07:04.835Z,15.05
2023-04-24T20:10:07.734Z,15.93
2023-04-24T20:13:10.053Z,13.45
2023-04-24T20:16:12.472Z,15.52
2023-04-24T20:19:14.885Z,16.45
2023-04-24T20:22:17.381Z,16.08
2023-04-24T20:25:19.740Z,14.25
2023-04-24T20:28:22.204Z,16.00
2023-04-24T20:31:25.602Z,11.98
2023-04-24T20:34:28.161Z,16.27
2023-04-24T20:37:30.747Z,14.70
2023-04-24T20:40:33.312Z,16.55
2023-04-24T20:43:35.779Z,12.50
2023-04-24T20:46:38.382Z,11.52
2023-04-24T20:49:40.933Z,12.43
2023-04-24T20:52:43.253Z,16.27
2023-04-24T20:55:45.682Z,15.70
2023-04-24T20:58:48.859Z,15.38
2023-04-24T21:01:51.537Z,13.27
2023-04-24T21:04:53.926Z,13.20
2023-04-24T21:07:56.445Z,12.80
2023-04-24T21:10:58.908Z,11.98
2023-04-24T21:14:01.426Z,11.55
2023-04-24T21:17:03.988Z,12.05
2023-04-24T21:20:08.571Z,13.25
2023-04-24T21:23:10.963Z,13.77
2023-04-24T21:26:13.574Z,13.82
2023-04-24T21:29:16.033Z,12.25
2023-04-24T21:32:18.590Z,12.68
2023-04-24T21:35:21.074Z,12.80
2023-04-24T21:38:25.112Z,13.43
2023-04-24T21:41:27.496Z,14.95
2023-04-24T21:44:29.822Z,13.27
2023-04-24T21:47:32.391Z,16.02
2023-04-24T21:50:34.817Z,15.13
2023-04-24T21:53:37.263Z,13.48
2023-04-24T21:56:41.567Z,15.82
2023-04-24T21:59:44.468Z,14.52
2023-04-24T22:02:46.956Z,16.48
2023-04-24T22:05:49.306Z,14.77
2023-04-24T22:08:51.779Z,15.23
2023-04-24T22:11:54.396Z,16.70
2023-04-24T22:14:56.641Z,18.48
2023-04-24T22:17:59.008Z,17.13
2023-04-24T22:21:01.408Z,16.35
2023-04-24T22:24:03.888Z,17.40
2023-04-24T22:27:06.273Z,18.88
2023-04-24T22:30:09.621Z,17.73
2023-04-24T22:33:12.273Z,16.58
2023-04-24T22:36:15.048Z,16.20
2023-04-24T22:39:17.662Z,15.60
2023-04-24T22:42:20.021Z,16.48
2023-04-24T22:45:26.242Z,17.10
2023-04-24T22:48:28.595Z,17.15
2023-04-24T22:51:33.681Z,15.80
2023-04-24T22:54:36.072Z,13.18
2023-04-24T22:57:38.921Z,14.45
2023-04-24T23:00:41.290Z,13.07
2023-04-24T23:03:43.799Z,12.15
2023-04-24T23:06:46.512Z,11.48
2023-04-24T23:09:48.876Z,11.55
2023-04-24T23:12:51.328Z,11.23
2023-04-24T23:15:54.856Z,13.35
2023-04-24T23:18:57.564Z,12.30
2023-04-24T23:22:00.739Z,12.65
2023-04-24T23:25:03.026Z,12.57
2023-04-24T23:28:05.720Z,11.77
2023-04-24T23:31:08.132Z,13.70
2023-04-24T23:34:10.454Z,14.45
2023-04-24T23:37:12.804Z,14.35
2023-04-24T23:40:15.390Z,15.25
2023-04-24T23:43:17.640Z,16.23
2023-04-24T23:46:20.073Z,15.65
2023-04-24T23:49:22.364Z,15.27
2023-04-24T23:52:24.682Z,15.05
2023-04-24T23:55:26.992Z,15.73
2023-04-24T23:58:30.105Z,15.75
